createdAt,value
2022-07-29T00:01:43.824Z,101135.23
2022-07-29T00:04:12.324Z,101134.73
2022-07-29T00:06:41.566Z,101136.80
2022-07-29T00:09:09.777Z,101139.67
2022-07-29T00:11:38.486Z,101138.17
2022-07-29T00:14:06.919Z,101142.63
2022-07-29T00:16:35.521Z,101144.60
2022-07-29T00:19:04.807Z,101148.01
2022-07-29T00:21:33.299Z,101146.91
2022-07-29T00:24:01.509Z,101143.75
2022-07-29T00:26:32.077Z,101145.50
2022-07-29T00:29:32.040Z,101144.11
2022-07-29T00:31:49.149Z,101143.64
2022-07-29T00:34:36.038Z,101145.61
2022-07-29T00:37:04.347Z,101148.98
2022-07-29T00:39:32.689Z,101144.61
2022-07-29T00:42:04.080Z,101143.98
2022-07-29T00:44:33.903Z,101137.73
2022-07-29T00:47:02.095Z,101142.92
2022-07-29T00:49:30.428Z,101140.63
2022-07-29T00:51:58.857Z,101139.77
2022-07-29T00:54:27.352Z,101141.44
2022-07-29T00:56:55.697Z,101141.95
2022-07-29T00:59:24.573Z,101138.45
2022-07-29T01:02:03.952Z,101141.25
2022-07-29T01:04:33.320Z,101142.30
2022-07-29T01:07:02.462Z,101140.59
2022-07-29T01:09:34.476Z,101142.30
2022-07-29T01:12:17.734Z,101139.91
2022-07-29T01:14:47.316Z,101135.89
2022-07-29T01:17:18.927Z,101137.56
2022-07-29T01:19:52.307Z,101134.22
2022-07-29T01:22:28.775Z,101134.92
2022-07-29T01:25:06.827Z,101137.65
2022-07-29T01:27:42.428Z,101136.27
2022-07-29T01:30:10.805Z,101136.57
2022-07-29T01:32:42.534Z,101137.40
2022-07-29T01:35:16.906Z,101139.20
2022-07-29T01:37:48.245Z,101136.95
2022-07-29T01:40:23.327Z,101134.83
2022-07-29T01:42:53.598Z,101135.94
2022-07-29T01:45:25.940Z,101137.23
2022-07-29T01:47:59.880Z,101140.49
2022-07-29T01:50:29.389Z,101142.29
2022-07-29T01:53:01.348Z,101140.58
2022-07-29T01:55:32.228Z,101144.59
2022-07-29T01:58:02.029Z,101144.29
2022-07-29T02:00:31.823Z,101144.29
2022-07-29T02:03:03.362Z,101145.04
2022-07-29T02:05:32.321Z,101145.54
2022-07-29T02:08:04.339Z,101144.92
2022-07-29T02:10:34.507Z,101146.77
2022-07-29T02:13:04.082Z,101147.63
2022-07-29T02:15:34.218Z,101146.75
2022-07-29T02:18:04.011Z,101142.17
2022-07-29T02:20:32.481Z,101145.13
2022-07-29T02:23:02.018Z,101141.55
2022-07-29T02:25:38.278Z,101139.60
2022-07-29T02:28:07.533Z,101136.85
2022-07-29T02:30:39.985Z,101138.08
2022-07-29T02:33:09.560Z,101147.05
2022-07-29T02:35:38.601Z,101148.75
2022-07-29T02:38:25.400Z,101145.69
2022-07-29T02:40:55.042Z,101151.35
2022-07-29T02:43:24.297Z,101150.02
2022-07-29T02:45:53.800Z,101148.22
2022-07-29T02:48:26.783Z,101147.20
2022-07-29T02:50:59.143Z,101150.61
2022-07-29T02:53:28.323Z,101152.77
2022-07-29T02:55:58.564Z,101149.27
2022-07-29T02:58:30.007Z,101148.80
2022-07-29T03:01:00.739Z,101147.98
2022-07-29T03:03:31.135Z,101149.48
2022-07-29T03:06:00.982Z,101153.19
2022-07-29T03:08:29.941Z,101152.27
2022-07-29T03:10:58.431Z,101154.45
2022-07-29T03:13:27.497Z,101155.36
2022-07-29T03:15:56.965Z,101152.98
2022-07-29T03:18:26.214Z,101148.23
2022-07-29T03:20:54.513Z,101153.19
2022-07-29T03:23:24.280Z,101153.62
2022-07-29T03:25:52.981Z,101153.73
2022-07-29T03:28:23.018Z,101154.41
2022-07-29T03:30:55.680Z,101152.70
2022-07-29T03:33:23.927Z,101158.16
2022-07-29T03:35:52.164Z,101163.52
2022-07-29T03:38:21.256Z,101164.52
2022-07-29T03:40:52.660Z,101156.70
2022-07-29T03:43:21.785Z,101159.58
2022-07-29T03:45:52.515Z,101154.45
2022-07-29T03:48:23.217Z,101152.48
2022-07-29T03:50:52.266Z,101150.06
2022-07-29T03:53:20.556Z,101152.33
2022-07-29T03:55:53.458Z,101155.14
2022-07-29T03:58:21.698Z,101152.09
2022-07-29T04:00:50.733Z,101155.85
2022-07-29T04:03:19.539Z,101157.68
2022-07-29T04:05:59.523Z,101156.77
2022-07-29T04:08:28.378Z,101159.42
2022-07-29T04:10:56.763Z,101164.98
2022-07-29T04:13:25.135Z,101163.02
2022-07-29T04:15:53.829Z,101161.54
2022-07-29T04:18:22.246Z,101161.27
2022-07-29T04:20:50.846Z,101161.52
2022-07-29T04:23:19.132Z,101161.79
2022-07-29T04:25:47.614Z,101162.57
2022-07-29T04:28:15.973Z,101164.44
2022-07-29T04:30:45.425Z,101161.36
2022-07-29T04:33:13.773Z,101158.82
2022-07-29T04:35:47.144Z,101159.91
2022-07-29T04:38:19.051Z,101160.25
2022-07-29T04:40:47.318Z,101164.63
2022-07-29T04:43:20.613Z,101164.84
2022-07-29T04:45:51.554Z,101167.33
2022-07-29T04:48:21.956Z,101164.35
2022-07-29T04:50:52.784Z,101165.80
2022-07-29T04:53:21.182Z,101167.23
2022-07-29T04:55:49.537Z,101165.98
2022-07-29T04:58:18.566Z,101167.63
2022-07-29T05:00:46.911Z,101166.55
2022-07-29T05:03:15.243Z,101172.46
2022-07-29T05:05:44.384Z,101173.52
2022-07-29T05:08:12.605Z,101173.83
2022-07-29T05:10:40.834Z,101173.10
2022-07-29T05:13:09.559Z,101175.10
2022-07-29T05:15:38.217Z,101179.58
2022-07-29T05:18:07.001Z,101177.59
2022-07-29T05:20:35.616Z,101182.48
2022-07-29T05:23:04.245Z,101182.14
2022-07-29T05:25:42.945Z,101183.86
2022-07-29T05:28:13.710Z,101182.31
2022-07-29T05:30:42.475Z,101183.75
2022-07-29T05:33:36.269Z,101189.29
2022-07-29T05:36:00.912Z,101190.06
2022-07-29T05:38:30.977Z,101188.42
2022-07-29T05:40:59.793Z,101189.84
2022-07-29T05:43:28.244Z,101191.11
2022-07-29T05:45:56.701Z,101185.57
2022-07-29T05:48:25.703Z,101184.84
2022-07-29T05:50:54.168Z,101186.50
2022-07-29T05:53:22.443Z,101181.44
2022-07-29T05:55:51.143Z,101175.34
2022-07-29T05:58:19.991Z,101177.14
2022-07-29T06:00:48.294Z,101176.21
2022-07-29T06:03:16.720Z,101173.30
2022-07-29T06:05:45.034Z,101169.21
2022-07-29T06:08:13.164Z,101167.83
2022-07-29T06:10:41.513Z,101170.27
2022-07-29T06:13:09.932Z,101166.99
2022-07-29T06:15:38.251Z,101166.68
2022-07-29T06:18:09.594Z,101168.28
2022-07-29T06:20:39.379Z,101169.11
2022-07-29T06:23:07.838Z,101167.41
2022-07-29T06:25:37.094Z,101165.15
2022-07-29T06:28:05.810Z,101165.39
2022-07-29T06:30:34.342Z,101169.17
2022-07-29T06:33:03.172Z,101167.64
2022-07-29T06:35:38.515Z,101160.85
2022-07-29T06:38:30.077Z,101161.10
2022-07-29T06:41:04.106Z,101156.90
2022-07-29T06:43:36.307Z,101156.85
2022-07-29T06:46:20.436Z,101162.20
2022-07-29T06:48:49.599Z,101163.26
2022-07-29T06:51:22.474Z,101165.74
2022-07-29T06:53:59.738Z,101164.27
2022-07-29T06:56:31.826Z,101159.98
2022-07-29T06:59:00.197Z,101160.14
2022-07-29T07:01:30.339Z,101160.39
2022-07-29T07:03:58.703Z,101164.65
2022-07-29T07:06:27.310Z,101165.37
2022-07-29T07:08:55.505Z,101166.30
2022-07-29T07:11:23.847Z,101160.06
2022-07-29T07:13:52.104Z,101161.96
2022-07-29T07:16:20.401Z,101159.36
2022-07-29T07:18:48.636Z,101155.62
2022-07-29T07:21:19.012Z,101149.50
2022-07-29T07:23:47.958Z,101157.05
2022-07-29T07:26:16.685Z,101158.12
2022-07-29T07:28:45.285Z,101156.52
2022-07-29T07:31:14.703Z,101151.78
2022-07-29T07:33:42.981Z,101155.38
2022-07-29T07:36:11.398Z,101158.52
2022-07-29T07:38:40.446Z,101153.14
2022-07-29T07:41:08.685Z,101152.15
2022-07-29T07:43:36.965Z,101152.11
2022-07-29T07:46:05.340Z,101154.30
2022-07-29T07:48:35.246Z,101151.55
2022-07-29T07:51:04.297Z,101152.88
2022-07-29T07:53:32.748Z,101155.52
2022-07-29T07:56:11.372Z,101158.48
2022-07-29T07:58:40.890Z,101156.82
2022-07-29T08:01:12.172Z,101151.89
2022-07-29T08:03:42.883Z,101157.55
2022-07-29T08:06:11.298Z,101164.61
2022-07-29T08:08:40.435Z,101161.36
2022-07-29T08:11:09.942Z,101158.70
2022-07-29T08:13:39.759Z,101159.61
2022-07-29T08:16:15.776Z,101156.48
2022-07-29T08:18:46.428Z,101154.71
2022-07-29T08:21:17.089Z,101152.28
2022-07-29T08:23:58.748Z,101152.26
2022-07-29T08:26:29.359Z,101149.59
2022-07-29T08:28:57.947Z,101147.86
2022-07-29T08:31:26.171Z,101144.77
2022-07-29T08:33:56.638Z,101145.71
2022-07-29T08:36:25.329Z,101144.48
2022-07-29T08:38:53.688Z,101142.77
2022-07-29T08:41:22.587Z,101141.15
2022-07-29T08:43:52.401Z,101146.56
2022-07-29T08:46:21.634Z,101147.98
2022-07-29T08:48:50.089Z,101145.48
2022-07-29T08:51:20.615Z,101149.45
2022-07-29T08:53:50.631Z,101147.59
2022-07-29T08:56:19.967Z,101152.98
2022-07-29T08:58:51.827Z,101153.33
2022-07-29T09:01:34.970Z,101151.35
2022-07-29T09:04:06.882Z,101148.91
2022-07-29T09:06:37.972Z,101148.42
2022-07-29T09:09:07.082Z,101140.13
2022-07-29T09:11:35.818Z,101138.91
2022-07-29T09:14:04.578Z,101131.90
2022-07-29T09:16:53.205Z,101128.22
2022-07-29T09:19:32.199Z,101133.63
2022-07-29T09:22:03.111Z,101132.45
2022-07-29T09:24:42.961Z,101134.70
2022-07-29T09:27:22.523Z,101136.69
2022-07-29T09:29:59.076Z,101139.23
2022-07-29T09:32:27.694Z,101142.36
2022-07-29T09:35:20.042Z,101139.80
2022-07-29T09:37:48.786Z,101130.27
2022-07-29T09:40:19.965Z,101127.27
2022-07-29T09:42:48.720Z,101122.58
2022-07-29T09:45:29.386Z,101123.27
2022-07-29T09:48:00.774Z,101122.13
2022-07-29T09:50:40.284Z,101120.00
2022-07-29T09:53:10.608Z,101118.99
2022-07-29T09:55:50.147Z,101120.15
2022-07-29T09:58:24.057Z,101110.98
2022-07-29T10:00:55.368Z,101112.04
2022-07-29T10:03:24.239Z,101112.05
2022-07-29T10:06:07.255Z,101114.58
2022-07-29T10:08:35.880Z,101114.75
2022-07-29T10:11:14.629Z,101112.27
2022-07-29T10:13:44.144Z,101110.61
2022-07-29T10:16:14.038Z,101107.33
2022-07-29T10:18:43.879Z,101106.14
2022-07-29T10:21:22.506Z,101104.44
2022-07-29T10:24:01.542Z,101100.96
2022-07-29T10:26:31.055Z,101097.21
2022-07-29T10:28:59.965Z,101091.02
2022-07-29T10:31:37.179Z,101088.48
2022-07-29T10:34:12.213Z,101088.80
2022-07-29T10:36:50.232Z,101087.72
2022-07-29T10:39:34.337Z,101088.42
2022-07-29T10:42:20.122Z,101086.33
2022-07-29T10:44:49.172Z,101083.19
2022-07-29T10:47:24.540Z,101084.35
2022-07-29T10:50:01.225Z,101087.35
2022-07-29T10:52:54.756Z,101089.94
2022-07-29T10:55:35.871Z,101087.80
2022-07-29T10:58:18.017Z,101083.21
2022-07-29T11:00:51.553Z,101080.54
2022-07-29T11:03:53.654Z,101081.92
2022-07-29T11:06:27.992Z,101083.50
2022-07-29T11:09:17.823Z,101080.43
2022-07-29T11:11:58.179Z,101072.95
2022-07-29T11:14:59.425Z,101068.36
2022-07-29T11:17:37.420Z,101069.60
2022-07-29T11:20:37.903Z,101074.07
2022-07-29T11:23:27.381Z,101070.44
2022-07-29T11:26:22.953Z,101073.14
2022-07-29T11:28:57.957Z,101070.80
2022-07-29T11:31:38.322Z,101070.10
2022-07-29T11:34:27.954Z,101064.41
2022-07-29T11:37:28.020Z,101062.98
2022-07-29T11:40:29.956Z,101062.37
2022-07-29T11:43:01.277Z,101056.63
2022-07-29T11:45:59.403Z,101054.85
2022-07-29T11:48:32.062Z,101050.94
2022-07-29T11:51:01.511Z,101053.56
2022-07-29T11:53:32.979Z,101053.19
2022-07-29T11:56:02.959Z,101047.35
2022-07-29T11:58:32.722Z,101041.65
2022-07-29T12:01:04.668Z,101042.92
2022-07-29T12:03:36.675Z,101046.00
2022-07-29T12:06:13.663Z,101042.13
2022-07-29T12:08:44.015Z,101034.74
2022-07-29T12:11:22.476Z,101035.14
2022-07-29T12:13:56.034Z,101039.74
2022-07-29T12:16:26.048Z,101035.56
2022-07-29T12:19:03.208Z,101033.48
2022-07-29T12:21:57.047Z,101032.29
2022-07-29T12:24:29.602Z,101033.27
2022-07-29T12:26:59.713Z,101032.72
2022-07-29T12:29:34.700Z,101029.37
2022-07-29T12:32:14.558Z,101027.58
2022-07-29T12:34:48.786Z,101030.98
2022-07-29T12:37:35.750Z,101032.56
2022-07-29T12:40:21.824Z,101025.91
2022-07-29T12:43:10.040Z,101022.76
2022-07-29T12:45:48.219Z,101015.48
2022-07-29T12:48:32.437Z,101018.77
2022-07-29T12:51:09.656Z,101012.66
2022-07-29T12:53:44.648Z,101010.21
2022-07-29T12:56:41.777Z,101011.73
2022-07-29T12:59:49.768Z,101014.86
2022-07-29T13:02:49.995Z,101017.89
2022-07-29T13:05:23.431Z,101017.95
2022-07-29T13:07:55.192Z,101014.33
2022-07-29T13:10:26.697Z,101013.84
2022-07-29T13:13:06.398Z,101012.61
2022-07-29T13:15:37.312Z,101010.39
2022-07-29T13:18:06.817Z,101004.06
2022-07-29T13:20:38.923Z,100999.28
2022-07-29T13:23:13.883Z,100997.38
2022-07-29T13:25:43.695Z,100994.36
2022-07-29T13:28:12.966Z,100989.72
2022-07-29T13:30:44.539Z,100993.45
2022-07-29T13:33:14.013Z,100991.26
2022-07-29T13:35:42.443Z,100988.33
2022-07-29T13:38:13.217Z,100985.14
2022-07-29T13:40:43.108Z,100987.85
2022-07-29T13:43:11.875Z,100988.80
2022-07-29T13:45:40.477Z,100989.84
2022-07-29T13:48:10.317Z,100988.02
2022-07-29T13:50:39.323Z,100983.13
2022-07-29T13:53:07.987Z,100985.36
2022-07-29T13:55:39.068Z,100981.67
2022-07-29T13:58:08.369Z,100979.42
2022-07-29T14:00:37.061Z,100979.86
2022-07-29T14:03:06.874Z,100975.27
2022-07-29T14:05:35.662Z,100974.38
2022-07-29T14:08:05.299Z,100965.31
2022-07-29T14:10:34.437Z,100968.65
2022-07-29T14:13:04.064Z,100971.11
2022-07-29T14:15:35.090Z,100966.46
2022-07-29T14:18:08.156Z,100967.14
2022-07-29T14:20:36.854Z,100959.74
2022-07-29T14:23:05.746Z,100958.40
2022-07-29T14:25:34.465Z,100957.20
2022-07-29T14:28:05.878Z,100956.02
2022-07-29T14:30:35.897Z,100951.61
2022-07-29T14:33:05.537Z,100954.64
2022-07-29T14:35:34.806Z,100953.52
2022-07-29T14:38:03.429Z,100951.49
2022-07-29T14:40:32.056Z,100946.02
2022-07-29T14:43:00.397Z,100939.36
2022-07-29T14:45:29.033Z,100944.73
2022-07-29T14:47:57.624Z,100942.58
2022-07-29T14:50:31.319Z,100942.08
2022-07-29T14:52:59.448Z,100944.88
2022-07-29T14:55:28.101Z,100943.77
2022-07-29T14:58:05.994Z,100938.34
2022-07-29T15:00:37.522Z,100936.38
2022-07-29T15:03:11.260Z,100935.84
2022-07-29T15:05:40.682Z,100933.31
2022-07-29T15:08:09.011Z,100925.77
2022-07-29T15:10:40.199Z,100926.16
2022-07-29T15:13:09.350Z,100920.42
2022-07-29T15:15:38.159Z,100920.96
2022-07-29T15:18:07.182Z,100920.91
2022-07-29T15:20:36.190Z,100914.85
2022-07-29T15:23:09.931Z,100915.97
2022-07-29T15:25:38.832Z,100910.61
2022-07-29T15:28:08.645Z,100909.92
2022-07-29T15:30:41.337Z,100906.55
2022-07-29T15:33:10.552Z,100906.85
2022-07-29T15:35:40.323Z,100907.77
2022-07-29T15:38:09.885Z,100906.16
2022-07-29T15:40:40.626Z,100899.34
2022-07-29T15:43:09.013Z,100899.01
2022-07-29T15:45:40.148Z,100896.98
2022-07-29T15:48:14.868Z,100888.11
2022-07-29T15:50:47.088Z,100885.34
2022-07-29T15:53:16.120Z,100889.73
2022-07-29T15:55:44.648Z,100888.41
2022-07-29T15:58:13.437Z,100886.30
2022-07-29T16:00:42.056Z,100883.74
2022-07-29T16:03:10.652Z,100883.33
2022-07-29T16:05:39.573Z,100881.17
2022-07-29T16:08:08.305Z,100878.42
2022-07-29T16:10:36.810Z,100879.45
2022-07-29T16:13:05.247Z,100882.37
2022-07-29T16:15:34.205Z,100885.69
2022-07-29T16:18:02.559Z,100886.80
2022-07-29T16:20:31.887Z,100883.86
2022-07-29T16:23:00.235Z,100880.23
2022-07-29T16:25:50.271Z,100880.29
2022-07-29T16:28:18.183Z,100878.39
2022-07-29T16:30:46.828Z,100884.91
2022-07-29T16:33:15.299Z,100879.64
2022-07-29T16:35:43.916Z,100878.69
2022-07-29T16:38:12.507Z,100881.02
2022-07-29T16:40:40.951Z,100883.79
2022-07-29T16:43:09.705Z,100881.02
2022-07-29T16:45:46.002Z,100885.61
2022-07-29T16:48:17.918Z,100891.70
2022-07-29T16:50:47.801Z,100890.24
2022-07-29T16:53:17.930Z,100892.74
2022-07-29T16:55:46.380Z,100895.49
2022-07-29T16:58:17.383Z,100892.84
2022-07-29T17:00:46.065Z,100893.70
2022-07-29T17:03:14.569Z,100898.45
2022-07-29T17:05:52.451Z,100900.75
2022-07-29T17:08:22.921Z,100900.61
2022-07-29T17:10:52.733Z,100898.08
2022-07-29T17:13:21.327Z,100896.63
2022-07-29T17:15:50.378Z,100894.83
2022-07-29T17:18:18.723Z,100902.45
2022-07-29T17:20:47.400Z,100904.69
2022-07-29T17:23:16.031Z,100907.26
2022-07-29T17:25:44.334Z,100903.88
2022-07-29T17:28:15.357Z,100900.73
2022-07-29T17:30:44.318Z,100902.06
2022-07-29T17:33:12.591Z,100903.77
2022-07-29T17:35:59.279Z,100904.91
2022-07-29T17:38:27.876Z,100899.88
2022-07-29T17:40:58.785Z,100900.85
2022-07-29T17:43:27.220Z,100904.61
2022-07-29T17:45:59.443Z,100907.30
2022-07-29T17:48:28.116Z,100907.05
2022-07-29T17:50:58.019Z,100909.11
2022-07-29T17:53:26.315Z,100908.38
2022-07-29T17:55:55.880Z,100908.56
2022-07-29T17:58:24.728Z,100912.02
2022-07-29T18:00:53.128Z,100904.48
2022-07-29T18:03:22.464Z,100906.65
2022-07-29T18:05:51.084Z,100905.60
2022-07-29T18:08:19.471Z,100902.33
2022-07-29T18:10:48.110Z,100904.36
2022-07-29T18:13:17.307Z,100901.78
2022-07-29T18:15:46.032Z,100902.41
2022-07-29T18:18:15.845Z,100904.39
2022-07-29T18:20:44.399Z,100904.94
2022-07-29T18:23:13.567Z,100901.88
2022-07-29T18:25:42.411Z,100901.32
2022-07-29T18:28:10.674Z,100902.01
2022-07-29T18:30:39.444Z,100903.48
2022-07-29T18:33:21.152Z,100912.98
2022-07-29T18:36:10.675Z,100911.70
2022-07-29T18:38:40.970Z,100910.48
2022-07-29T18:41:09.437Z,100912.04
2022-07-29T18:43:37.832Z,100916.04
2022-07-29T18:46:06.513Z,100915.86
2022-07-29T18:48:36.489Z,100917.73
2022-07-29T18:51:09.126Z,100917.14
2022-07-29T18:53:41.360Z,100915.32
2022-07-29T18:56:09.633Z,100917.39
2022-07-29T18:58:38.799Z,100916.88
2022-07-29T19:01:08.042Z,100915.28
2022-07-29T19:03:36.515Z,100915.71
2022-07-29T19:06:05.261Z,100923.10
2022-07-29T19:08:36.330Z,100922.68
2022-07-29T19:11:04.940Z,100923.66
2022-07-29T19:13:33.831Z,100922.45
2022-07-29T19:16:02.299Z,100920.24
2022-07-29T19:18:30.766Z,100927.11
2022-07-29T19:20:59.318Z,100932.65
2022-07-29T19:23:27.908Z,100943.69
2022-07-29T19:25:56.686Z,100948.27
2022-07-29T19:28:28.264Z,100941.54
2022-07-29T19:30:56.975Z,100939.92
2022-07-29T19:33:25.449Z,100936.14
2022-07-29T19:35:55.106Z,100934.23
2022-07-29T19:38:26.820Z,100934.83
2022-07-29T19:40:56.192Z,100934.39
2022-07-29T19:43:51.759Z,100933.95
2022-07-29T19:46:13.260Z,100925.91
2022-07-29T19:48:41.808Z,100926.44
2022-07-29T19:51:10.338Z,100923.45
2022-07-29T19:53:38.994Z,100926.05
2022-07-29T19:56:08.950Z,100925.64
2022-07-29T19:58:38.603Z,100929.61
2022-07-29T20:01:09.980Z,100928.33
2022-07-29T20:03:39.965Z,100932.36
2022-07-29T20:06:09.022Z,100932.92
2022-07-29T20:08:37.493Z,100934.23
2022-07-29T20:11:06.419Z,100936.66
2022-07-29T20:13:35.023Z,100938.23
2022-07-29T20:16:07.561Z,100944.63
2022-07-29T20:18:37.054Z,100941.66
2022-07-29T20:21:06.659Z,100941.20
2022-07-29T20:23:34.980Z,100937.98
2022-07-29T20:26:06.121Z,100939.80
2022-07-29T20:28:39.866Z,100939.00
2022-07-29T20:31:08.836Z,100935.24
2022-07-29T20:33:37.248Z,100935.31
2022-07-29T20:36:06.574Z,100929.96
2022-07-29T20:38:34.931Z,100934.89
2022-07-29T20:41:03.190Z,100933.54
2022-07-29T20:43:31.512Z,100933.53
2022-07-29T20:46:07.093Z,100931.82
2022-07-29T20:48:37.185Z,100929.16
2022-07-29T20:51:05.969Z,100926.16
2022-07-29T20:53:34.510Z,100926.85
2022-07-29T20:56:02.876Z,100924.79
2022-07-29T20:58:32.196Z,100925.02
2022-07-29T21:01:01.083Z,100924.50
2022-07-29T21:03:29.986Z,100925.90
2022-07-29T21:05:58.832Z,100920.66
2022-07-29T21:08:28.346Z,100920.60
2022-07-29T21:10:57.768Z,100918.26
2022-07-29T21:13:29.189Z,100916.95
2022-07-29T21:16:00.827Z,100913.73
2022-07-29T21:18:30.445Z,100914.55
2022-07-29T21:21:01.648Z,100914.25
2022-07-29T21:23:30.536Z,100914.31
2022-07-29T21:25:59.385Z,100910.85
2022-07-29T21:28:29.034Z,100907.23
2022-07-29T21:31:01.929Z,100909.55
2022-07-29T21:33:32.651Z,100905.64
2022-07-29T21:36:20.574Z,100906.34
2022-07-29T21:38:49.957Z,100906.38
2022-07-29T21:41:18.871Z,100901.27
2022-07-29T21:43:47.131Z,100905.36
2022-07-29T21:46:20.372Z,100902.64
2022-07-29T21:48:53.353Z,100907.70
2022-07-29T21:51:21.927Z,100911.73
2022-07-29T21:53:50.407Z,100910.46
2022-07-29T21:56:22.628Z,100906.04
2022-07-29T21:58:56.172Z,100907.67
2022-07-29T22:01:24.835Z,100906.28
2022-07-29T22:03:53.433Z,100906.61
2022-07-29T22:06:22.256Z,100906.09
2022-07-29T22:08:51.489Z,100908.44
2022-07-29T22:11:20.288Z,100906.88
2022-07-29T22:13:48.833Z,100907.67
2022-07-29T22:16:19.084Z,100902.45
2022-07-29T22:18:48.490Z,100903.22
2022-07-29T22:21:18.006Z,100898.95
2022-07-29T22:23:47.523Z,100893.44
2022-07-29T22:26:15.880Z,100890.73
2022-07-29T22:28:46.705Z,100895.46
2022-07-29T22:31:15.258Z,100893.89
2022-07-29T22:33:43.491Z,100893.11
2022-07-29T22:36:14.677Z,100895.13
2022-07-29T22:38:46.434Z,100890.41
2022-07-29T22:41:16.694Z,100883.39
2022-07-29T22:43:45.060Z,100878.40
2022-07-29T22:46:13.571Z,100880.23
2022-07-29T22:48:42.201Z,100884.73
2022-07-29T22:51:10.635Z,100885.15
2022-07-29T22:53:41.927Z,100881.59
2022-07-29T22:56:10.317Z,100885.15
2022-07-29T22:58:40.589Z,100884.72
2022-07-29T23:01:08.934Z,100887.31
2022-07-29T23:03:38.685Z,100883.61
2022-07-29T23:06:09.527Z,100880.21
2022-07-29T23:08:38.220Z,100878.30
2022-07-29T23:11:06.584Z,100880.79
2022-07-29T23:13:34.904Z,100882.36
2022-07-29T23:16:03.749Z,100881.79
2022-07-29T23:18:33.814Z,100879.48
2022-07-29T23:21:02.078Z,100876.79
2022-07-29T23:23:33.503Z,100870.17
2022-07-29T23:26:04.031Z,100867.20
2022-07-29T23:28:32.439Z,100868.58
2022-07-29T23:31:01.017Z,100868.80
2022-07-29T23:33:29.595Z,100866.73
2022-07-29T23:35:57.989Z,100868.73
2022-07-29T23:38:26.503Z,100867.00
2022-07-29T23:40:54.975Z,100868.59
2022-07-29T23:43:23.623Z,100870.18
2022-07-29T23:45:53.642Z,100869.02
2022-07-29T23:48:22.341Z,100870.09
2022-07-29T23:50:50.805Z,100865.80
2022-07-29T23:53:19.706Z,100869.33
2022-07-29T23:55:48.204Z,100869.73
2022-07-29T23:58:16.761Z,100865.80
